首页
METAR-TAF:

METAR-TAF

机场 :

尼亞加拉瀑布城, 紐約州, 美国

纬度: 43-06-26N, 经度: 078-56-43W, 海拔: 180米

当前天气观测

该预报发布于12分钟前的09:35 UTC
风速6节,风向西转西南
温度 -11°C
湿度 85%
气压 1026 hPa
能見度: 16.1公里
多云层高于2400英尺

METAR: KIAG 130935Z AUTO 25006KT 10SM BKN024 M11/M13 A3030 RMK AO2 T11111128 $

时间: 04:47 (09:47 UTC)

预报

该预报发布于38分钟前的09:09 UTC
预报有效从13日的 09点(UTC)到 14日的 06点(UTC)
风速7节,风向西
能見度: 10公里
少量云层高于2000英尺
多云层高于2600英尺
小阵雪
从 13日的 1200点(UTC)
风速4节,风向
能見度: 10公里
多云层高于3500英尺
从 13日的 1600点(UTC)
风速3节,风向多变
能見度: 10公里
多云层高于4000英尺

TAF: KIAG 130909Z 1309/1406 28007KT P6SM -SHSN FEW020 BKN026 FM131200 36004KT P6SM BKN035 FM131600 VRB03KT P6SM BKN040

超过4000个机场的气象观测和天气预报(METAR&TAF报告)。

可查询的气象台以黄色和红色小点在地图上表示。

将鼠标移到小点上方,可查看气象台名称。

然后点击查看天气观测和预报。

如需切换地图:点击带黑十字的绿色按钮放大地图;点击带横线的绿色按钮缩小地图;或者点击绿色箭头查看邻近地区的地图。


METAR-TAF: